Time;durP1;ratioP1;P1;durP2;ratioP2;P2;SDS_P1;SDS_P2;PMS_P1;PMS_P2;Temp;Humidity;BMP_temperature;BMP_pressure;BME280_temperature;BME280_humidity;BME280_pressure;Samples;Min_cycle;Max_cycle;Signal;HPM_P1;HPM_P2
2024/01/11 00:00:12;;;;;;;23.05;15.13;;;;;;;-6.72;100.00;93608.03;2081476;28;20436;-80
2024/01/11 00:01:14;;;;;;;24.85;15.82;;;;;;;-6.75;100.00;93613.06;2081747;28;20456;-82
2024/01/11 00:02:16;;;;;;;29.25;16.70;;;;;;;-6.73;100.00;93611.69;2097800;28;20474;-79
2024/01/11 00:03:17;;;;;;;27.42;16.65;;;;;;;-6.77;100.00;93613.34;2097942;28;20447;-80
2024/01/11 00:04:18;;;;;;;23.55;15.52;;;;;;;-6.71;100.00;93606.97;2089838;28;20443;-80
2024/01/11 00:05:18;;;;;;;32.15;16.35;;;;;;;-6.64;100.00;93607.31;2089004;28;20127;-80
2024/01/11 00:06:19;;;;;;;27.90;15.82;;;;;;;-6.64;100.00;93609.91;2081414;28;20032;-79
2024/01/11 00:07:20;;;;;;;25.10;15.48;;;;;;;-6.65;100.00;93607.63;2088144;28;20108;-79
2024/01/11 00:08:21;;;;;;;25.90;15.90;;;;;;;-6.69;100.00;93604.84;2089306;28;20025;-79
2024/01/11 00:09:23;;;;;;;27.17;16.23;;;;;;;-6.70;100.00;93603.31;2089701;28;20032;-80
2024/01/11 00:10:24;;;;;;;24.85;16.10;;;;;;;-6.78;100.00;93608.44;2094869;28;20039;-80
2024/01/11 00:11:25;;;;;;;27.40;16.10;;;;;;;-6.85;100.00;93616.63;2092998;28;20455;-80
2024/01/11 00:12:26;;;;;;;26.35;15.95;;;;;;;-6.77;100.00;93610.75;2088080;28;20036;-79
2024/01/11 00:13:27;;;;;;;23.15;14.98;;;;;;;-6.79;100.00;93620.69;2096039;28;20446;-80
2024/01/11 00:14:28;;;;;;;25.20;16.02;;;;;;;-6.81;100.00;93611.63;2101192;28;20020;-79
2024/01/11 00:15:29;;;;;;;27.33;16.17;;;;;;;-6.86;100.00;93615.88;2097604;28;20035;-81
2024/01/11 00:16:30;;;;;;;27.38;15.93;;;;;;;-6.86;100.00;93613.28;2089389;28;20537;-78
2024/01/11 00:17:36;;;;;;;25.90;15.70;;;;;;;-6.87;100.00;93606.53;2097873;28;20482;-81
2024/01/11 00:18:37;;;;;;;24.90;14.93;;;;;;;-6.88;100.00;93609.44;2092867;28;20486;-80
2024/01/11 00:19:38;;;;;;;25.88;15.43;;;;;;;-6.87;100.00;93613.56;2096710;28;20431;-80
2024/01/11 00:20:39;;;;;;;23.05;15.32;;;;;;;-6.86;100.00;93607.31;2102908;28;20024;-81
2024/01/11 00:21:40;;;;;;;28.40;17.20;;;;;;;-6.82;100.00;93604.91;2094401;28;20036;-80
2024/01/11 00:22:40;;;;;;;27.30;16.15;;;;;;;-6.86;100.00;93613.28;2089194;28;20036;-80
2024/01/11 00:23:41;;;;;;;26.35;15.73;;;;;;;-6.89;100.00;93607.88;2097971;28;20062;-78
2024/01/11 00:24:42;;;;;;;25.65;15.48;;;;;;;-6.80;100.00;93618.34;2098263;28;20017;-78
2024/01/11 00:25:43;;;;;;;28.60;16.45;;;;;;;-6.86;100.00;93617.69;2089531;28;20036;-80
2024/01/11 00:26:44;;;;;;;24.02;15.13;;;;;;;-6.85;100.00;93620.03;2089484;28;20405;-79
2024/01/11 00:27:45;;;;;;;25.55;15.40;;;;;;;-6.86;100.00;93613.28;2089227;28;20475;-79
2024/01/11 00:28:46;;;;;;;26.60;15.82;;;;;;;-6.91;100.00;93615.22;2089308;28;20478;-81
2024/01/11 00:29:47;;;;;;;25.15;16.00;;;;;;;-6.94;100.00;93613.19;2082110;28;20022;-77
2024/01/11 00:30:48;;;;;;;28.00;16.35;;;;;;;-7.01;100.00;93616.22;2080888;28;20816;-80
2024/01/11 00:31:52;;;;;;;24.02;15.10;;;;;;;-6.93;100.00;93622.56;2088919;28;20037;-78
2024/01/11 00:32:53;;;;;;;27.58;15.90;;;;;;;-7.05;100.00;93620.47;2097980;28;20024;-80
2024/01/11 00:33:54;;;;;;;24.77;15.88;;;;;;;-7.06;100.00;93618.94;2089453;28;21003;-81
2024/01/11 00:34:55;;;;;;;22.95;14.93;;;;;;;-6.96;100.00;93623.13;2081284;28;20037;-79
2024/01/11 00:35:56;;;;;;;25.98;16.33;;;;;;;-6.89;100.00;93613.88;2073206;28;20121;-80
2024/01/11 00:36:57;;;;;;;27.27;15.55;;;;;;;-6.97;100.00;93624.19;2081031;28;20083;-81
2024/01/11 00:37:58;;;;;;;26.65;15.63;;;;;;;-6.92;100.00;93616.28;2097567;28;20534;-79
2024/01/11 00:38:59;;;;;;;29.40;15.23;;;;;;;-6.91;100.00;93612.63;2106668;28;20446;-78
2024/01/11 00:40:00;;;;;;;27.08;15.77;;;;;;;-7.04;100.00;93616.03;2087642;28;20487;-79
2024/01/11 00:41:01;;;;;;;26.40;14.77;;;;;;;-6.99;100.00;93619.28;2079378;28;20040;-80
2024/01/11 00:42:02;;;;;;;22.73;15.20;;;;;;;-6.92;100.00;93613.69;2094098;28;20082;-79
2024/01/11 00:43:04;;;;;;;25.40;15.00;;;;;;;-6.80;100.00;93623.53;2101427;28;20092;-80
2024/01/11 00:44:05;;;;;;;23.77;14.40;;;;;;;-6.80;100.00;93616.53;2100453;28;20902;-79
2024/01/11 00:45:06;;;;;;;26.25;15.32;;;;;;;-6.80;100.00;93618.34;2097286;28;20915;-80
2024/01/11 00:46:07;;;;;;;24.35;14.75;;;;;;;-6.91;100.00;93612.63;2089131;28;20450;-79
2024/01/11 00:47:08;;;;;;;24.15;15.05;;;;;;;-6.87;100.00;93621.38;2090171;28;20581;-79
2024/01/11 00:48:09;;;;;;;23.27;14.70;;;;;;;-6.88;100.00;93625.03;2088960;28;20486;-81
2024/01/11 00:49:10;;;;;;;25.50;14.73;;;;;;;-6.87;100.00;93613.56;2084878;28;20184;-80
2024/01/11 00:50:11;;;;;;;25.20;14.75;;;;;;;-6.81;100.00;93619.41;2094338;28;20024;-79
2024/01/11 00:51:12;;;;;;;25.52;15.20;;;;;;;-6.84;100.00;93620.78;2097632;28;20032;-80
2024/01/11 00:52:13;;;;;;;29.52;15.55;;;;;;;-6.85;100.00;93624.44;2085590;28;20060;-80
2024/01/11 00:53:14;;;;;;;23.85;14.73;;;;;;;-6.95;100.00;93629.84;2080752;28;20044;-81
2024/01/11 00:54:15;;;;;;;24.45;14.60;;;;;;;-6.90;100.00;93630.50;2072823;28;20485;-80
2024/01/11 00:55:16;;;;;;;25.98;13.95;;;;;;;-6.95;100.00;93625.44;2079869;28;20460;-79
2024/01/11 00:56:18;;;;;;;25.40;15.52;;;;;;;-6.79;100.00;93636.25;2088990;28;20039;-78
2024/01/11 00:57:19;;;;;;;24.50;15.43;;;;;;;-6.74;100.00;93630.94;2097965;28;20081;-80
2024/01/11 00:58:20;;;;;;;23.02;15.45;;;;;;;-6.73;100.00;93629.13;2097453;28;20474;-79
2024/01/11 00:59:21;;;;;;;28.92;16.05;;;;;;;-6.74;100.00;93636.16;2097771;28;20025;-79
2024/01/11 01:00:22;;;;;;;24.75;14.77;;;;;;;-6.83;100.00;93629.34;2089015;28;20505;-78
2024/01/11 01:01:23;;;;;;;25.90;14.20;;;;;;;-6.76;100.00;93638.28;2094942;28;20028;-80
2024/01/11 01:02:28;;;;;;;22.35;14.68;;;;;;;-6.71;100.00;93629.59;2088821;28;20031;-80
2024/01/11 01:03:29;;;;;;;25.42;15.10;;;;;;;-6.73;100.00;93632.47;2089978;28;20447;-79
2024/01/11 01:04:30;;;;;;;30.55;16.40;;;;;;;-6.75;100.00;93634.63;2105598;28;20803;-79
2024/01/11 01:05:31;;;;;;;21.70;14.18;;;;;;;-6.86;100.00;93634.06;2105445;28;20119;-79
2024/01/11 01:06:31;;;;;;;23.13;14.35;;;;;;;-7.03;100.00;93630.56;2097853;28;20127;-81
2024/01/11 01:07:32;;;;;;;26.15;15.32;;;;;;;-6.97;100.00;93632.00;2095820;28;20028;-80
2024/01/11 01:08:33;;;;;;;25.05;15.25;;;;;;;-6.96;100.00;93630.94;2097365;28;20024;-79
2024/01/11 01:09:34;;;;;;;23.38;15.23;;;;;;;-6.92;100.00;93631.88;2097606;28;20111;-79
2024/01/11 01:10:35;;;;;;;27.48;16.02;;;;;;;-6.99;100.00;93631.50;2095844;28;20025;-76
2024/01/11 01:11:36;;;;;;;27.98;15.65;;;;;;;-7.04;100.00;93629.03;2092193;28;20028;-80
2024/01/11 01:12:37;;;;;;;22.58;14.70;;;;;;;-7.11;100.00;93626.84;2082836;28;20454;-78
2024/01/11 01:13:38;;;;;;;23.98;14.50;;;;;;;-7.13;100.00;93628.94;2078520;28;20021;-75
2024/01/11 01:14:39;;;;;;;27.33;15.82;;;;;;;-7.12;100.00;93625.28;2080981;28;20060;-79
2024/01/11 01:15:40;;;;;;;26.58;15.48;;;;;;;-7.13;100.00;93623.75;2084189;28;20354;-77
2024/01/11 01:16:41;;;;;;;23.25;13.63;;;;;;;-7.17;100.00;93620.97;2088714;28;20033;-78
2024/01/11 01:17:43;;;;;;;26.25;15.32;;;;;;;-7.13;100.00;93621.91;2080293;28;20625;-77
2024/01/11 01:18:44;;;;;;;23.05;14.23;;;;;;;-7.14;100.00;93617.03;2080227;28;20464;-76
2024/01/11 01:19:45;;;;;;;24.65;14.48;;;;;;;-7.08;100.00;93621.03;2088407;28;20029;-77
2024/01/11 01:20:46;;;;;;;24.08;14.23;;;;;;;-7.25;100.00;93623.47;2091215;28;20044;-77
2024/01/11 01:21:47;;;;;;;23.40;15.50;;;;;;;-7.21;100.00;93612.22;2093559;28;20036;-78
2024/01/11 01:22:48;;;;;;;27.05;15.35;;;;;;;-7.20;100.00;93620.78;2080646;28;20455;-77
2024/01/11 01:23:48;;;;;;;22.63;14.40;;;;;;;-7.19;100.00;93615.31;2089123;28;20021;-76
2024/01/11 01:24:49;;;;;;;23.77;14.57;;;;;;;-7.20;100.00;93618.97;2097224;28;20569;-79
2024/01/11 01:25:50;;;;;;;25.15;14.75;;;;;;;-7.16;100.00;93613.94;2089167;28;20028;-76
2024/01/11 01:26:51;;;;;;;23.10;15.00;;;;;;;-7.13;100.00;93618.56;2088697;28;20025;-77
2024/01/11 01:27:52;;;;;;;24.83;15.38;;;;;;;-7.12;100.00;93618.25;2096886;28;20781;-77
2024/01/11 01:28:54;;;;;;;23.33;14.93;;;;;;;-7.13;100.00;93621.91;2096936;28;20028;-78
2024/01/11 01:30:05;;;;;;;26.63;15.48;;;;;;;-7.18;100.00;93621.25;2097045;28;20462;-76
2024/01/11 01:31:06;;;;;;;25.27;14.27;;;;;;;-7.27;100.00;93628.97;2096573;28;20515;-77
2024/01/11 01:32:13;;;;;;;24.80;14.48;;;;;;;-7.29;100.00;93628.47;2096803;28;20439;-78
2024/01/11 01:33:14;;;;;;;25.38;14.77;;;;;;;-7.16;100.00;93625.09;2097933;28;20825;-77
2024/01/11 01:34:14;;;;;;;23.58;14.18;;;;;;;-7.15;100.00;93621.44;2097956;28;20580;-77
2024/01/11 01:35:16;;;;;;;24.65;15.38;;;;;;;-7.13;100.00;93623.75;2097441;28;20040;-76
2024/01/11 01:36:17;;;;;;;21.95;14.07;;;;;;;-7.18;100.00;93627.22;2095185;28;20623;-76
2024/01/11 01:37:18;;;;;;;22.35;14.77;;;;;;;-7.16;100.00;93627.69;2095781;28;20552;-80
2024/01/11 01:38:18;;;;;;;23.23;14.02;;;;;;;-6.99;100.00;93627.06;2088638;28;20955;-76
2024/01/11 01:39:19;;;;;;;24.63;15.18;;;;;;;-7.03;100.00;93630.56;2088333;28;20028;-77
2024/01/11 01:40:20;;;;;;;21.73;13.68;;;;;;;-7.23;100.00;93627.34;2080849;28;20025;-76
2024/01/11 01:41:21;;;;;;;23.02;14.15;;;;;;;-7.23;100.00;93624.75;2092754;28;20025;-78
2024/01/11 01:42:23;;;;;;;26.00;14.57;;;;;;;-7.19;100.00;93622.34;2094248;28;20974;-78
2024/01/11 01:43:24;;;;;;;22.98;14.35;;;;;;;-7.15;100.00;93623.28;2087514;28;20443;-77
2024/01/11 01:44:25;;;;;;;26.20;15.48;;;;;;;-7.18;100.00;93622.03;2088483;28;20036;-77
2024/01/11 01:45:27;;;;;;;24.23;15.10;;;;;;;-7.13;100.00;93632.31;2089245;28;20087;-78
2024/01/11 01:46:28;;;;;;;25.20;14.50;;;;;;;-7.08;100.00;93626.22;2079807;28;20474;-79
2024/01/11 01:47:32;;;;;;;22.67;14.25;;;;;;;-7.22;100.00;93625.50;2073366;28;20469;-76
2024/01/11 01:48:33;;;;;;;22.58;13.50;;;;;;;-7.31;100.00;93622.06;2078906;28;20539;-78
2024/01/11 01:49:37;;;;;;;23.05;14.45;;;;;;;-7.28;100.00;93627.44;2080705;28;20033;-76
2024/01/11 01:50:38;;;;;;;23.55;14.10;;;;;;;-7.23;100.00;93626.56;2080848;28;20515;-76
2024/01/11 01:51:45;;;;;;;22.30;14.13;;;;;;;-7.14;100.00;93633.38;2079543;28;21488;-77
2024/01/11 01:52:47;;;;;;;22.55;14.23;;;;;;;-7.22;100.00;93628.88;2079726;28;20459;-77
2024/01/11 01:53:50;;;;;;;26.85;14.68;;;;;;;-7.26;100.00;93629.75;2088750;28;20114;-77
2024/01/11 01:54:51;;;;;;;22.17;13.80;;;;;;;-7.25;100.00;93620.88;2080088;28;20523;-78
2024/01/11 01:55:52;;;;;;;22.80;13.70;;;;;;;-7.27;100.00;93625.63;2081677;28;20452;-78
2024/01/11 01:56:54;;;;;;;20.02;13.23;;;;;;;-7.22;100.00;93630.69;2105053;28;20457;-76
2024/01/11 01:57:56;;;;;;;21.27;13.00;;;;;;;-7.27;100.00;93631.56;2096835;28;20443;-78
2024/01/11 01:58:58;;;;;;;25.23;14.05;;;;;;;-7.22;100.00;93630.69;2097059;28;20518;-77
2024/01/11 02:00:01;;;;;;;21.90;13.32;;;;;;;-7.32;100.00;93625.72;2088710;28;20542;-78
2024/01/11 02:01:02;;;;;;;23.80;14.00;;;;;;;-7.35;100.00;93632.25;2081000;28;20456;-78
2024/01/11 02:02:04;;;;;;;22.60;14.10;;;;;;;-7.34;100.00;93644.16;2096357;28;20473;-78
2024/01/11 02:03:06;;;;;;;21.52;13.88;;;;;;;-7.27;100.00;93639.38;2096848;28;20954;-78
2024/01/11 02:04:07;;;;;;;24.42;13.38;;;;;;;-7.28;100.00;93645.63;2096766;28;20450;-76
2024/01/11 02:05:09;;;;;;;19.73;12.70;;;;;;;-7.29;100.00;93641.47;2095759;28;20466;-78
2024/01/11 02:06:12;;;;;;;21.08;13.50;;;;;;;-7.36;100.00;93651.50;2088875;28;20455;-77
2024/01/11 02:07:14;;;;;;;26.13;14.50;;;;;;;-7.15;100.00;93641.47;2079380;28;20432;-78
2024/01/11 02:08:19;;;;;;;21.90;13.48;;;;;;;-7.28;100.00;93653.41;2079439;28;20551;-78
2024/01/11 02:09:20;;;;;;;22.40;14.63;;;;;;;-7.19;100.00;93646.47;2089374;28;20454;-76
2024/01/11 02:10:55;;;;;;;21.45;13.00;;;;;;;-7.32;100.00;93656.88;2096125;28;20454;-75
2024/01/11 02:11:56;;;;;;;21.33;12.43;;;;;;;-7.56;100.00;93652.66;2084547;28;20443;-76
2024/01/11 02:12:57;;;;;;;19.65;12.32;;;;;;;-7.55;100.00;93648.22;2088206;28;20479;-77
2024/01/11 02:13:59;;;;;;;19.42;12.48;;;;;;;-7.47;100.00;93652.75;2090274;28;20214;-76
2024/01/11 02:15:16;;;;;;;21.10;13.15;;;;;;;-7.46;100.00;93657.66;2083085;28;20448;-76
2024/01/11 02:16:18;;;;;;;22.65;12.77;;;;;;;-7.44;100.00;93655.53;2093619;28;20544;-78
2024/01/11 02:17:34;;;;;;;24.45;14.75;;;;;;;-7.55;100.00;93650.81;2081049;28;20436;-78
2024/01/11 02:18:35;;;;;;;21.67;13.48;;;;;;;-7.49;100.00;93650.44;2084133;28;20565;-76
2024/01/11 02:19:36;;;;;;;22.70;13.85;;;;;;;-7.54;100.00;93654.97;2090491;28;20454;-78
2024/01/11 02:20:37;;;;;;;21.70;12.68;;;;;;;-7.47;100.00;93653.50;2096159;28;20489;-78
2024/01/11 02:21:39;;;;;;;23.02;13.48;;;;;;;-7.53;100.00;93654.66;2088410;28;20539;-78
2024/01/11 02:22:44;;;;;;;23.63;13.52;;;;;;;-7.41;100.00;93659.38;2088020;28;20052;-77
2024/01/11 02:24:12;;;;;;;22.42;13.27;;;;;;;-7.50;100.00;93651.50;2080961;28;20448;-78
2024/01/11 02:25:13;;;;;;;18.98;11.80;;;;;;;-7.44;100.00;93665.16;2083914;28;20435;-79
2024/01/11 02:26:14;;;;;;;20.50;12.90;;;;;;;-7.28;100.00;93653.41;2088665;28;20526;-77
2024/01/11 02:27:16;;;;;;;21.20;13.15;;;;;;;-7.31;100.00;93655.81;2102048;28;20464;-75
2024/01/11 02:28:17;;;;;;;22.55;13.70;;;;;;;-7.38;100.00;93651.75;2096750;28;20521;-77
2024/01/11 02:29:18;;;;;;;23.70;13.73;;;;;;;-7.32;100.00;93651.69;2088365;28;20815;-78
2024/01/11 02:30:19;;;;;;;24.77;14.07;;;;;;;-7.55;100.00;93656.00;2088528;28;20463;-78
2024/01/11 02:31:20;;;;;;;26.98;13.93;;;;;;;-7.49;100.00;93650.44;2087520;28;20087;-77
2024/01/11 02:32:22;;;;;;;23.58;14.13;;;;;;;-7.56;100.00;93649.28;2080063;28;20021;-78
2024/01/11 02:33:22;;;;;;;24.52;13.80;;;;;;;-7.44;100.00;93654.75;2080735;28;20469;-78
2024/01/11 02:34:25;;;;;;;23.65;14.25;;;;;;;-7.56;100.00;93660.44;2096784;28;21085;-78
2024/01/11 02:35:27;;;;;;;24.42;14.82;;;;;;;-7.48;100.00;93648.63;2096958;28;20024;-78
2024/01/11 02:36:28;;;;;;;23.75;13.50;;;;;;;-7.53;100.00;93652.06;2080118;28;20511;-79
2024/01/11 02:37:30;;;;;;;24.00;13.63;;;;;;;-7.52;100.00;93648.41;2088357;28;20415;-79
2024/01/11 02:38:32;;;;;;;25.58;13.88;;;;;;;-7.52;100.00;93651.00;2096994;28;20029;-77
2024/01/11 02:39:34;;;;;;;24.90;14.52;;;;;;;-7.58;100.00;93657.38;2088439;28;20463;-77
2024/01/11 02:40:37;;;;;;;24.23;14.75;;;;;;;-7.60;100.00;93656.88;2090080;28;20527;-76
2024/01/11 02:41:39;;;;;;;22.58;13.18;;;;;;;-7.63;100.00;93654.88;2094356;28;20450;-78
2024/01/11 02:42:41;;;;;;;22.63;14.00;;;;;;;-7.58;100.00;93648.81;2075130;28;20539;-76
2024/01/11 02:43:47;;;;;;;24.40;13.85;;;;;;;-7.55;100.00;93645.63;2085345;28;20451;-77
2024/01/11 02:44:48;;;;;;;21.33;13.95;;;;;;;-7.60;100.00;93657.63;2089106;28;20025;-78
2024/01/11 02:45:49;;;;;;;26.90;15.15;;;;;;;-7.52;100.00;93652.84;2083968;28;20496;-80
2024/01/11 02:46:49;;;;;;;25.25;14.35;;;;;;;-7.56;100.00;93646.69;2067947;28;20061;-77
2024/01/11 02:47:50;;;;;;;19.55;13.45;;;;;;;-7.49;100.00;93647.84;2079901;28;20029;-79
2024/01/11 02:48:52;;;;;;;22.70;13.93;;;;;;;-7.53;100.00;93653.91;2083498;28;20446;-77
2024/01/11 02:49:53;;;;;;;22.27;12.63;;;;;;;-7.50;100.00;93648.16;2088844;28;20081;-77
2024/01/11 02:50:55;;;;;;;27.58;14.07;;;;;;;-7.65;100.00;93654.38;2088937;28;20447;-77
2024/01/11 02:51:56;;;;;;;27.02;14.38;;;;;;;-7.59;100.00;93642.84;2082126;28;20461;-78
2024/01/11 02:52:57;;;;;;;27.73;14.95;;;;;;;-7.53;100.00;93646.13;2088063;28;20451;-80
2024/01/11 02:53:58;;;;;;;26.20;15.65;;;;;;;-7.68;100.00;93647.94;2095313;28;20107;-77
2024/01/11 02:54:59;;;;;;;24.52;14.40;;;;;;;-7.68;100.00;93645.34;2085339;28;20543;-75
2024/01/11 02:56:03;;;;;;;23.70;14.07;;;;;;;-7.64;100.00;93638.53;2085382;28;20556;-77
2024/01/11 02:57:04;;;;;;;23.27;14.48;;;;;;;-7.63;100.00;93637.47;2079929;28;20071;-77
2024/01/11 02:58:05;;;;;;;24.30;14.18;;;;;;;-7.71;100.00;93642.56;2079990;28;20448;-76
2024/01/11 02:59:06;;;;;;;28.67;14.75;;;;;;;-7.74;100.00;93637.94;2088256;28;20452;-76
2024/01/11 03:00:07;;;;;;;24.38;14.15;;;;;;;-7.70;100.00;93631.88;2096370;28;20758;-77
2024/01/11 03:01:08;;;;;;;24.75;14.55;;;;;;;-7.68;100.00;93629.78;2094226;28;20059;-79
2024/01/11 03:02:09;;;;;;;24.25;14.90;;;;;;;-7.62;100.00;93633.81;2081927;28;20487;-77
2024/01/11 03:03:11;;;;;;;24.35;14.52;;;;;;;-7.72;100.00;93631.41;2091545;28;20484;-78
2024/01/11 03:04:12;;;;;;;24.58;14.35;;;;;;;-7.73;100.00;93632.47;2087867;28;20451;-77
2024/01/11 03:05:13;;;;;;;27.00;14.48;;;;;;;-7.66;100.00;93630.25;2087676;28;21126;-77
2024/01/11 03:06:14;;;;;;;26.15;13.95;;;;;;;-7.62;100.00;93630.44;2089113;28;20100;-78
2024/01/11 03:07:15;;;;;;;23.13;14.10;;;;;;;-7.67;100.00;93630.56;2087555;28;20063;-79
2024/01/11 03:08:15;;;;;;;23.58;14.95;;;;;;;-7.64;100.00;93627.34;2088349;28;20443;-76
2024/01/11 03:09:16;;;;;;;25.50;14.77;;;;;;;-7.67;100.00;93633.16;2088761;28;20032;-77
2024/01/11 03:10:17;;;;;;;26.00;13.95;;;;;;;-7.68;100.00;93629.00;2076757;28;20025;-78
2024/01/11 03:11:18;;;;;;;25.75;14.88;;;;;;;-7.80;100.00;93623.53;2088043;28;20422;-77
2024/01/11 03:12:19;;;;;;;22.80;14.07;;;;;;;-7.74;100.00;93630.94;2095158;28;20021;-77
2024/01/11 03:13:20;;;;;;;21.55;13.27;;;;;;;-7.68;100.00;93634.19;2095718;28;20020;-76
2024/01/11 03:14:21;;;;;;;27.80;14.63;;;;;;;-7.68;100.00;93621.22;2092002;28;20091;-76
2024/01/11 03:15:22;;;;;;;22.85;13.93;;;;;;;-7.62;100.00;93620.84;2088546;28;20482;-77
2024/01/11 03:16:25;;;;;;;28.42;14.75;;;;;;;-7.61;100.00;93630.16;2088407;28;20543;-79
2024/01/11 03:17:26;;;;;;;24.65;13.75;;;;;;;-7.57;100.00;93625.16;2087571;28;20080;-76
2024/01/11 03:18:27;;;;;;;22.52;14.10;;;;;;;-7.55;100.00;93627.44;2094452;28;20569;-78
2024/01/11 03:19:28;;;;;;;27.20;14.48;;;;;;;-7.59;100.00;93627.28;2090471;28;20504;-77
2024/01/11 03:20:29;;;;;;;25.10;14.35;;;;;;;-7.67;100.00;93633.91;2093499;28;20055;-78
2024/01/11 03:21:33;;;;;;;24.33;15.05;;;;;;;-7.70;100.00;93624.09;2083556;28;20040;-79
2024/01/11 03:22:33;;;;;;;24.13;13.93;;;;;;;-7.71;100.00;93624.41;2080528;28;20794;-77
2024/01/11 03:23:34;;;;;;;25.13;14.93;;;;;;;-7.65;100.00;93628.44;2088459;28;20171;-78
2024/01/11 03:24:41;;;;;;;24.23;13.90;;;;;;;-7.59;100.00;93632.47;2095652;28;20082;-80
2024/01/11 03:25:42;;;;;;;26.80;14.05;;;;;;;-7.65;100.00;93626.59;2100406;28;20042;-76
2024/01/11 03:26:43;;;;;;;27.23;15.35;;;;;;;-7.68;100.00;93627.19;2098623;28;20954;-77
2024/01/11 03:27:45;;;;;;;24.75;14.10;;;;;;;-7.67;100.00;93622.78;2097537;28;20028;-77
2024/01/11 03:28:46;;;;;;;21.52;14.30;;;;;;;-7.58;100.00;93620.28;2089423;28;20025;-79
2024/01/11 03:29:49;;;;;;;28.75;15.32;;;;;;;-7.68;100.00;93622.00;2097614;28;20458;-76
2024/01/11 03:30:50;;;;;;;25.70;15.98;;;;;;;-7.70;100.00;93626.69;2097866;28;20465;-78
2024/01/11 03:31:51;;;;;;;28.13;14.43;;;;;;;-7.72;100.00;93623.63;2097417;28;20521;-77
2024/01/11 03:32:52;;;;;;;24.95;14.38;;;;;;;-7.73;100.00;93623.91;2089338;28;20021;-77
2024/01/11 03:33:52;;;;;;;22.88;13.95;;;;;;;-7.66;100.00;93630.25;2073522;28;20033;-78
2024/01/11 03:34:53;;;;;;;22.55;14.30;;;;;;;-7.83;100.00;93630.06;2081827;28;20021;-79
2024/01/11 03:35:54;;;;;;;27.35;16.10;;;;;;;-7.76;100.00;93627.88;2090005;28;20497;-79
2024/01/11 03:36:55;;;;;;;25.17;14.32;;;;;;;-7.59;100.00;93632.47;2089427;28;20029;-79
2024/01/11 03:37:56;;;;;;;26.67;14.88;;;;;;;-7.60;100.00;93626.50;2073532;28;20453;-79
2024/01/11 03:38:57;;;;;;;25.95;14.60;;;;;;;-7.68;100.00;93623.81;2073559;28;20445;-78
2024/01/11 03:39:59;;;;;;;26.92;15.45;;;;;;;-7.67;100.00;93620.94;2081467;28;20048;-79
2024/01/11 03:41:00;;;;;;;25.10;15.60;;;;;;;-7.70;100.00;93626.69;2078851;28;20471;-79
2024/01/11 03:42:03;;;;;;;22.65;14.35;;;;;;;-7.72;100.00;93623.63;2080915;28;20540;-79
2024/01/11 03:43:04;;;;;;;24.75;14.05;;;;;;;-7.69;100.00;93622.28;2088289;28;20509;-79
2024/01/11 03:44:05;;;;;;;23.88;14.70;;;;;;;-7.67;100.00;93633.16;2097796;28;20418;-80
2024/01/11 03:45:07;;;;;;;23.80;14.68;;;;;;;-7.81;100.00;93625.38;2090103;28;20108;-80
2024/01/11 03:46:08;;;;;;;22.55;14.00;;;;;;;-7.81;100.00;93625.38;2082516;28;20588;-78
2024/01/11 03:47:10;;;;;;;24.92;14.32;;;;;;;-7.80;100.00;93621.72;2094843;28;20454;-79
2024/01/11 03:48:10;;;;;;;25.48;14.85;;;;;;;-7.75;100.00;93619.00;2086070;28;20029;-78
2024/01/11 03:49:11;;;;;;;27.60;15.25;;;;;;;-7.74;100.00;93615.34;2078542;28;20515;-80
2024/01/11 03:50:12;;;;;;;24.42;15.25;;;;;;;-7.73;100.00;93616.88;2089949;28;20025;-80
2024/01/11 03:51:13;;;;;;;24.15;14.18;;;;;;;-7.71;100.00;93614.03;2089649;28;20055;-80
2024/01/11 03:52:14;;;;;;;26.33;15.25;;;;;;;-7.79;100.00;93614.69;2097039;28;20047;-81
2024/01/11 03:53:15;;;;;;;26.60;16.23;;;;;;;-7.72;100.00;93617.69;2086062;28;20025;-80
2024/01/11 03:54:16;;;;;;;25.15;14.82;;;;;;;-7.74;100.00;93612.00;2081386;28;20490;-80
2024/01/11 03:55:17;;;;;;;22.30;14.25;;;;;;;-7.81;100.00;93617.59;2088820;28;20036;-82
2024/01/11 03:56:19;;;;;;;27.23;16.13;;;;;;;-7.84;100.00;93609.59;2081442;28;20076;-79
2024/01/11 03:57:20;;;;;;;28.48;14.95;;;;;;;-7.81;100.00;93612.41;2089731;28;20017;-80
2024/01/11 03:58:21;;;;;;;27.17;14.80;;;;;;;-7.74;100.00;93610.16;2089767;28;20982;-79
2024/01/11 03:59:22;;;;;;;29.23;15.35;;;;;;;-7.64;100.00;93614.38;2090087;28;20032;-79
2024/01/11 04:00:25;;;;;;;25.58;15.40;;;;;;;-7.76;100.00;93611.53;2089638;28;20029;-80
2024/01/11 04:01:25;;;;;;;24.02;14.68;;;;;;;-7.72;100.00;93610.66;2081770;28;20029;-81
2024/01/11 04:02:26;;;;;;;26.17;15.38;;;;;;;-7.68;100.00;93609.03;2081415;28;20455;-78
2024/01/11 04:03:27;;;;;;;29.20;15.85;;;;;;;-7.73;100.00;93605.75;2081649;28;20080;-80
2024/01/11 04:04:28;;;;;;;26.40;15.05;;;;;;;-7.78;100.00;93606.59;2081361;28;20367;-81
2024/01/11 04:05:29;;;;;;;27.80;14.93;;;;;;;-7.69;100.00;93604.09;2089481;28;20045;-80
2024/01/11 04:06:30;;;;;;;23.02;14.40;;;;;;;-7.68;100.00;93608.22;2097654;28;20027;-80
2024/01/11 04:07:31;;;;;;;25.85;14.80;;;;;;;-7.68;100.00;93600.44;2079575;28;20025;-80
2024/01/11 04:08:32;;;;;;;23.95;15.52;;;;;;;-7.88;100.00;93610.16;2065009;28;20092;-79
2024/01/11 04:09:33;;;;;;;27.90;15.27;;;;;;;-7.78;100.00;93598.81;2081621;28;21032;-80
2024/01/11 04:10:34;;;;;;;27.27;15.90;;;;;;;-7.69;100.00;93591.91;2097016;28;20028;-79
2024/01/11 04:11:35;;;;;;;24.20;15.10;;;;;;;-7.69;100.00;93599.69;2098021;28;20218;-79
2024/01/11 04:12:37;;;;;;;26.15;15.07;;;;;;;-7.51;100.00;93599.88;2085135;28;20037;-80
2024/01/11 04:13:39;;;;;;;28.65;15.30;;;;;;;-7.66;100.00;93606.13;2093516;28;20107;-77
2024/01/11 04:14:40;;;;;;;26.90;15.65;;;;;;;-7.71;100.00;93604.41;2089765;28;20435;-82
2024/01/11 04:15:41;;;;;;;30.48;16.50;;;;;;;-7.72;100.00;93600.28;2092741;28;20455;-79
2024/01/11 04:16:43;;;;;;;30.05;15.88;;;;;;;-7.52;100.00;93601.69;2097079;28;20437;-80
2024/01/11 04:17:43;;;;;;;25.05;14.82;;;;;;;-7.58;100.00;93602.09;2097266;28;20815;-79
2024/01/11 04:18:44;;;;;;;28.20;16.85;;;;;;;-7.59;100.00;93601.34;2102598;28;20458;-79
2024/01/11 04:19:45;;;;;;;25.58;14.88;;;;;;;-7.67;100.00;93596.81;2081620;28;20029;-82
2024/01/11 04:20:46;;;;;;;25.63;15.65;;;;;;;-7.65;100.00;93603.25;2081165;28;20090;-79
2024/01/11 04:21:47;;;;;;;28.98;15.75;;;;;;;-7.60;100.00;93600.53;2081008;28;20021;-79
2024/01/11 04:22:50;;;;;;;27.27;15.23;;;;;;;-7.58;100.00;93594.31;2081348;28;20033;-81
2024/01/11 04:23:51;;;;;;;26.80;15.25;;;;;;;-7.58;100.00;93594.31;2074705;28;20448;-79
2024/01/11 04:24:52;;;;;;;29.45;16.20;;;;;;;-7.71;100.00;93598.44;2097697;28;20033;-78
2024/01/11 04:25:52;;;;;;;28.95;15.65;;;;;;;-7.80;100.00;93598.34;2097436;28;21180;-80
2024/01/11 04:26:54;;;;;;;24.98;15.07;;;;;;;-7.73;100.00;93603.16;2086776;28;20036;-79
2024/01/11 04:27:55;;;;;;;26.35;15.93;;;;;;;-7.78;100.00;93598.81;2096459;28;20481;-79
2024/01/11 04:28:58;;;;;;;25.27;15.43;;;;;;;-7.71;100.00;93596.63;2088797;28;20029;-79
2024/01/11 04:29:58;;;;;;;25.90;15.07;;;;;;;-7.70;100.00;93592.19;2081127;28;21399;-79
2024/01/11 04:30:59;;;;;;;28.02;15.32;;;;;;;-7.71;100.00;93582.88;2088568;28;20450;-79
2024/01/11 04:32:04;;;;;;;28.52;16.80;;;;;;;-7.74;100.00;93591.25;2081123;28;20045;-79
2024/01/11 04:33:05;;;;;;;24.98;15.38;;;;;;;-7.77;100.00;93587.41;2090275;28;20454;-78
2024/01/11 04:34:06;;;;;;;28.42;15.35;;;;;;;-7.71;100.00;93588.06;2097912;28;20831;-79
2024/01/11 04:35:07;;;;;;;28.65;15.43;;;;;;;-7.66;100.00;93582.78;2097774;28;20063;-80
2024/01/11 04:36:09;;;;;;;27.75;15.77;;;;;;;-7.77;100.00;93587.41;2089539;28;20033;-79
2024/01/11 04:37:10;;;;;;;27.75;14.93;;;;;;;-7.79;100.00;93596.53;2097568;28;20454;-79
2024/01/11 04:38:11;;;;;;;28.10;15.88;;;;;;;-7.78;100.00;93591.03;2106133;28;20958;-80
2024/01/11 04:39:11;;;;;;;27.63;15.00;;;;;;;-7.82;100.00;93589.31;2098564;28;20020;-80
2024/01/11 04:40:12;;;;;;;27.38;14.70;;;;;;;-7.81;100.00;93593.44;2097662;28;20069;-80